Latest Coastal Weather Observations for Port Pirie Airport AWS***

IDS60701

Issued at 11:15 am CDT Thursday 23 October 2014 (issued every 10 minutes, with the page automatically refreshed every 10 minutes)

About coastal observations | Map of coastal stations | Coastal observations for SA | Marine services | Other Formats
Station Details ID: 250006 Name: PORT PIRIE AERODROME AWS Lat: -33.23 Lon: 138.00 Height: 10.0 m
Data from the previous 72 hours. | See also: Recent months for locations in South Australia
Date/Time
CDT
Temp

°C
Wind Pressure Rain
since 9am
mm
Weather Cloud Vis
km
Sea
Height
m
Swell
Dir
 
Speed
knots
Gust
knots
hPa Trend Height
m
Period
s
Dir
23/11:00am 21.1 SSW 4 8 - - 0.0 - - - - - - -
23/10:30am 20.5 S 5 10 - - 0.0 - - - - - - -
23/10:00am 19.1 SSE 6 10 - - 0.0 - - - - - - -
23/09:30am 18.4 SE 6 11 - - 0.0 - - - - - - -
23/09:00am 17.4 SSE 7 12 - - 0.0 - - - - - - -
23/08:30am 16.6 SE 7 10 - - 0.0 - - - - - - -
23/08:00am 16.2 SE 7 10 - - 0.0 - - - - - - -
23/07:30am 15.9 SSE 6 9 - - 0.0 - - - - - - -
23/07:00am 15.5 SSE 6 9 - - 0.0 - - - - - - -
23/06:30am 15.5 SE 3 6 - - 0.0 - - - - - - -
23/06:00am 15.5 SSE 5 7 - - 0.0 - - - - - - -
23/05:30am 15.5 SSE 4 7 - - 0.0 - - - - - - -
23/05:00am 15.7 SSE 4 6 - - 0.0 - - - - - - -
23/04:30am 15.7 S 6 8 - - 0.0 - - - - - - -
23/04:00am 15.9 S 5 8 - - 0.0 - - - - - - -
23/03:30am 16.0 S 7 11 - - 0.0 - - - - - - -
23/03:00am 16.0 S 5 9 - - 0.0 - - - - - - -
23/02:30am 15.8 S 4 7 - - 0.0 - - - - - - -
23/02:00am 15.1 S 5 7 - - 0.0 - - - - - - -
23/01:30am 15.2 SSW 5 6 - - 0.0 - - - - - - -
23/01:00am 14.3 SSW 6 7 - - 0.0 - - - - - - -
23/12:30am 13.2 SSW 4 5 - - 0.0 - - - - - - -
23/12:00am 13.8 S 4 5 - - 0.0 - - - - - - -
 
Date/Time
CDT
Temp

°C
Wind Pressure Rain
since 9am
mm
Weather Cloud Vis
km
Sea
Height
m
Swell
Dir
 
Speed
knots
Gust
knots
hPa Trend Height
m
Period
s
Dir
22/11:30pm 14.1 SSE 4 5 - - 0.0 - - - - - - -
22/11:00pm 14.7 S 5 7 - - 0.0 - - - - - - -
22/10:30pm 16.0 SE 6 9 - - 0.0 - - - - - - -
22/10:00pm 16.6 SSE 6 9 - - 0.0 - - - - - - -
22/09:30pm 17.2 SSW 4 6 - - 0.0 - - - - - - -
22/09:00pm 17.4 S 3 6 - - 0.0 - - - - - - -
22/08:30pm 18.0 SSW 5 9 - - 0.0 - - - - - - -
22/08:00pm 18.2 SSW 6 9 - - 0.0 - - - - - - -
22/07:30pm 18.6 SSW 9 12 - - 0.0 - - - - - - -
22/07:00pm 19.4 SW 10 16 - - 0.0 - - - - - - -
22/06:30pm 20.2 SW 10 16 - - 0.0 - - - - - - -
22/06:00pm 20.8 SW 11 14 - - 0.0 - - - - - - -
22/05:30pm 21.8 SW 10 14 - - 0.0 - - - - - - -
22/05:00pm 22.5 SW 9 15 - - 0.0 - - - - - - -
22/04:30pm 22.5 SW 10 15 - - 0.0 - - - - - - -
22/04:00pm 22.6 SW 14 20 - - 0.0 - - - - - - -
22/03:30pm 22.0 SW 13 19 - - 0.0 - - - - - - -
22/03:00pm 22.6 SW 13 18 - - 0.0 - - - - - - -
22/02:30pm 23.2 SW 10 15 - - 0.0 - - - - - - -
22/02:00pm 23.2 SW 10 16 - - 0.0 - - - - - - -
22/01:30pm 23.4 SW 10 16 - - 0.0 - - - - - - -
22/01:00pm 23.0 SW 8 13 - - 0.0 - - - - - - -
22/12:30pm 23.0 WSW 8 15 - - 0.0 - - - - - - -
22/12:00pm 24.0 WSW 7 14 - - 0.0 - - - - - - -
22/11:30am 22.7 WSW 6 11 - - 0.0 - - - - - - -
22/11:00am 22.9 WSW 6 10 - - 0.0 - - - - - - -
22/10:30am 22.4 WSW 5 11 - - 0.0 - - - - - - -
22/10:00am 21.5 WSW 5 9 - - 0.0 - - - - - - -
22/09:30am 21.6 SW 6 9 - - 0.0 - - - - - - -
22/09:00am 20.7 WSW 4 8 - - 0.0 - - - - - - -
22/08:30am 20.3 W 3 7 - - 0.0 - - - - - - -
22/08:00am 19.4 NW 2 4 - - 0.0 - - - - - - -
22/07:30am 18.2 N 2 4 - - 0.0 - - - - - - -
22/07:00am 17.0 NW 3 4 - - 0.0 - - - - - - -
22/06:30am 16.8 N 1 3 - - 0.0 - - - - - - -
22/06:00am 17.1 N 2 3 - - 0.0 - - - - - - -
22/05:30am 19.1 SW 2 5 - - 0.0 - - - - - - -
22/05:00am 19.7 S 5 11 - - 0.0 - - - - - - -
22/04:30am 20.1 WSW 9 15 - - 0.0 - - - - - - -
22/04:00am 21.9 WNW 3 6 - - 0.0 - - - - - - -
22/03:30am 22.3 WSW 2 7 - - 0.0 - - - - - - -
22/03:00am 23.3 NNE 3 4 - - 0.0 - - - - - - -
22/02:30am 22.4 NNE 6 7 - - 0.0 - - - - - - -
22/02:00am 26.7 NE 3 3 - - 0.0 - - - - - - -
22/01:30am 26.8 ENE 5 6 - - 0.0 - - - - - - -
22/01:00am 27.3 ENE 5 6 - - 0.0 - - - - - - -
22/12:30am 26.0 E 5 7 - - 0.0 - - - - - - -
22/12:00am 24.2 ESE 5 6 - - 0.0 - - - - - - -
 
Date/Time
CDT
Temp

°C
Wind Pressure Rain
since 9am
mm
Weather Cloud Vis
km
Sea
Height
m
Swell
Dir
 
Speed
knots
Gust
knots
hPa Trend Height
m
Period
s
Dir
21/11:30pm 22.2 ESE 4 6 - - 0.0 - - - - - - -
21/11:00pm 22.9 E 5 6 - - 0.0 - - - - - - -
21/10:30pm 24.8 ENE 3 7 - - 0.0 - - - - - - -
21/10:00pm 27.8 SSE 1 2 - - 0.0 - - - - - - -
21/09:30pm 28.3 WNW 1 2 - - 0.0 - - - - - - -
21/09:00pm 27.3 ESE 1 2 - - 0.0 - - - - - - -
21/08:30pm 27.6 E 3 3 - - 0.0 - - - - - - -
21/08:00pm 29.0 E 3 4 - - 0.0 - - - - - - -
21/07:30pm 31.2 E 1 2 - - 0.0 - - - - - - -
21/07:00pm 32.9 NW 1 2 - - 0.0 - - - - - - -
21/06:30pm 35.1 W 1 3 - - 0.0 - - - - - - -
21/06:00pm 36.6 WNW 4 7 - - 0.0 - - - - - - -
21/05:30pm 36.7 NNW 6 11 - - 0.0 - - - - - - -
21/05:00pm 36.8 NNW 7 11 - - 0.0 - - - - - - -
21/04:30pm 36.9 N 9 15 - - 0.0 - - - - - - -
21/04:00pm 37.6 N 9 17 - - 0.0 - - - - - - -
21/03:30pm 37.5 N 9 14 - - 0.0 - - - - - - -
21/03:00pm 38.2 N 9 15 - - 0.0 - - - - - - -
21/02:30pm 37.5 N 10 16 - - 0.0 - - - - - - -
21/02:00pm 37.8 N 10 16 - - 0.0 - - - - - - -
21/01:30pm 37.3 N 9 16 - - 0.0 - - - - - - -
21/01:00pm 36.6 N 8 14 - - 0.0 - - - - - - -
21/12:30pm 36.0 N 9 15 - - 0.0 - - - - - - -
21/12:00pm 36.3 NNE 11 16 - - 0.0 - - - - - - -
21/11:30am 35.9 N 11 18 - - 0.0 - - - - - - -
21/11:00am 35.3 NNE 12 19 - - 0.0 - - - - - - -
21/10:30am 34.8 NE 15 19 - - 0.0 - - - - - - -
21/10:00am 33.9 NE 15 21 - - 0.0 - - - - - - -
21/09:30am 32.5 NE 14 18 - - 0.0 - - - - - - -
21/09:00am 32.3 NE 14 22 - - 0.0 - - - - - - -
21/08:30am 31.3 NE 13 19 - - 0.0 - - - - - - -
21/08:00am 29.9 NE 13 18 - - 0.0 - - - - - - -
21/07:30am 29.6 NE 11 16 - - 0.0 - - - - - - -
21/07:00am 27.2 ENE 6 10 - - 0.0 - - - - - - -
21/06:30am 27.7 NE 8 13 - - 0.0 - - - - - - -
21/06:00am 27.8 ENE 12 20 - - 0.0 - - - - - - -
21/05:30am 28.0 ENE 11 18 - - 0.0 - - - - - - -
21/05:00am 28.2 ENE 11 18 - - 0.0 - - - - - - -
21/04:30am 27.8 ENE 11 17 - - 0.0 - - - - - - -
21/04:00am 27.8 ENE 11 18 - - 0.0 - - - - - - -
21/03:30am 27.9 ENE 13 20 - - 0.0 - - - - - - -
21/03:00am 27.7 ENE 9 14 - - 0.0 - - - - - - -
21/02:30am 28.4 ENE 13 20 - - 0.0 - - - - - - -
21/02:00am 28.3 ENE 13 20 - - 0.0 - - - - - - -
21/01:30am 28.0 E 9 15 - - 0.0 - - - - - - -
21/01:00am 28.5 E 8 14 - - 0.0 - - - - - - -
21/12:30am 29.2 E 11 16 - - 0.0 - - - - - - -
21/12:00am 29.4 E 11 15 - - 0.0 - - - - - - -
 
Date/Time
CDT
Temp

°C
Wind Pressure Rain
since 9am
mm
Weather Cloud Vis
km
Sea
Height
m
Swell
Dir
 
Speed
knots
Gust
knots
hPa Trend Height
m
Period
s
Dir
20/11:30pm 30.3 E 11 21 - - 0.0 - - - - - - -
20/11:00pm 30.0 E 11 18 - - 0.0 - - - - - - -
20/10:30pm 29.3 E 9 13 - - 0.0 - - - - - - -
20/10:00pm 28.9 E 7 10 - - 0.0 - - - - - - -
20/09:30pm 27.6 ENE 6 10 - - 0.0 - - - - - - -
20/09:00pm 26.4 E 4 6 - - 0.0 - - - - - - -
20/08:30pm 29.0 SE 9 13 - - 0.0 - - - - - - -
20/08:00pm 28.1 SE 5 8 - - 0.0 - - - - - - -
20/07:30pm 30.5 SSE 5 8 - - 0.0 - - - - - - -
20/07:00pm 33.2 S 7 9 - - 0.0 - - - - - - -
20/06:30pm 35.1 SSE 3 7 - - 0.0 - - - - - - -
20/06:00pm 35.8 E 1 4 - - 0.0 - - - - - - -
20/05:30pm 36.1 N 2 6 - - 0.0 - - - - - - -
20/05:00pm 36.7 NE 6 11 - - 0.0 - - - - - - -
20/04:30pm 36.2 NW 4 8 - - 0.0 - - - - - - -
20/04:00pm 36.8 NNW 7 14 - - 0.0 - - - - - - -
20/03:30pm 35.5 NNE 4 12 - - 0.0 - - - - - - -
20/03:00pm 36.1 NNW 5 12 - - 0.0 - - - - - - -
20/02:30pm 36.5 NE 7 11 - - 0.0 - - - - - - -
20/02:00pm 35.7 NNE 7 15 - - 0.0 - - - - - - -
20/01:30pm 36.1 N 7 11 - - 0.0 - - - - - - -
20/01:00pm 35.7 NNE 10 15 - - 0.0 - - - - - - -
20/12:30pm 34.8 N 8 14 - - 0.0 - - - - - - -
20/12:00pm 34.5 N 9 14 - - 0.0 - - - - - - -
20/11:30am 34.4 N 6 10 - - 0.0 - - - - - - -

Other Formats:

Comma delimited format used in spreadsheet applications
http://www.bom.gov.au/fwo/IDS60701/IDS60701.99001.axf

JavaScript Object Notation format (JSON) in row-major order
http://www.bom.gov.au/fwo/IDS60701/IDS60701.99001.json